Edgewood, Washington
Current Conditions -  °F | °C
As of 5:58 PM on Sunday 21 Dec 2014 (Local Time) from KTCM Reporting Station
Overcast Overcast  
Wind Chill: 46°   Ceiling: 13000
Heat Index: 49°   Visibility: 10mi
Dew Point: 47°   Wind: 8mph
Humidity: 94%   Direction: 180°S
Pressure: 30.08"   Gusts: NA
Location:  47.2018°N, 122.233°W
Report Text: KTCM 220158Z AUTO 18007KT 10SM OVC130 10/09 A3008 RMK AO2 SLP191 T00960086
Loading
Personal Weather Stations






























Interactive Weather Map New forecast layout! Learn more

10-Day Weather Forecast

Advertisements
Track Severe Weather on mobile